Time;durP1;ratioP1;P1;durP2;ratioP2;P2;SDS_P1;SDS_P2;PMS_P1;PMS_P2;Temp;Humidity;BMP_temperature;BMP_pressure;BME280_temperature;BME280_humidity;BME280_pressure;Samples;Min_cycle;Max_cycle;Signal;HPM_P1;HPM_P2
2022/10/12 00:00:33;;;;;;;1.77;1.48;;;;;;;;;;5063827;28;20039;-61
2022/10/12 00:02:59;;;;;;;1.40;1.10;;;;;;;;;;5067919;28;20040;-61
2022/10/12 00:05:25;;;;;;;2.25;1.13;;;;;;;;;;5070185;28;20864;-62
2022/10/12 00:07:51;;;;;;;2.22;1.02;;;;;;;;;;5061612;28;20044;-61
2022/10/12 00:10:17;;;;;;;2.85;1.15;;;;;;;;;;5068079;28;20156;-62
2022/10/12 00:12:44;;;;;;;1.20;1.10;;;;;;;;;;5066852;28;20052;-61
2022/10/12 00:15:10;;;;;;;2.80;1.17;;;;;;;;;;5067811;28;20403;-61
2022/10/12 00:17:36;;;;;;;2.45;1.00;;;;;;;;;;5062469;28;20148;-62
2022/10/12 00:20:03;;;;;;;1.58;1.40;;;;;;;;;;5063947;28;20079;-62
2022/10/12 00:22:29;;;;;;;2.10;1.52;;;;;;;;;;5065801;28;20301;-62
2022/10/12 00:24:55;;;;;;;2.83;1.30;;;;;;;;;;5065668;28;20044;-62
2022/10/12 00:27:21;;;;;;;2.75;1.63;;;;;;;;;;5069019;28;20043;-62
2022/10/12 00:29:47;;;;;;;3.33;2.15;;;;;;;;;;5061865;28;20047;-61
2022/10/12 00:32:14;;;;;;;4.03;1.92;;;;;;;;;;5064557;28;20129;-62
2022/10/12 00:34:40;;;;;;;4.40;2.30;;;;;;;;;;5069514;28;20475;-62
2022/10/12 00:37:06;;;;;;;4.00;1.85;;;;;;;;;;5069824;28;20072;-62
2022/10/12 00:39:32;;;;;;;5.72;2.40;;;;;;;;;;5069061;28;20131;-63
2022/10/12 00:41:58;;;;;;;3.17;2.20;;;;;;;;;;5068989;28;20037;-62
2022/10/12 00:44:38;;;;;;;3.00;2.38;;;;;;;;;;5071364;28;20044;-62
2022/10/12 00:47:10;;;;;;;2.90;1.83;;;;;;;;;;5063296;28;20044;-62
2022/10/12 00:49:36;;;;;;;2.13;1.52;;;;;;;;;;5069841;28;20037;-62
2022/10/12 00:52:06;;;;;;;4.22;1.90;;;;;;;;;;5070686;28;20462;-63
2022/10/12 00:54:33;;;;;;;4.13;2.20;;;;;;;;;;5072425;28;20047;-62
2022/10/12 00:57:02;;;;;;;5.60;2.00;;;;;;;;;;5057633;28;20044;-61
2022/10/12 00:59:31;;;;;;;2.38;1.92;;;;;;;;;;5070787;28;20074;-61
2022/10/12 01:01:57;;;;;;;1.20;1.10;;;;;;;;;;5072522;28;20042;-62
2022/10/12 01:04:23;;;;;;;2.45;1.27;;;;;;;;;;5069816;28;20036;-61
2022/10/12 01:06:50;;;;;;;1.58;1.15;;;;;;;;;;5066593;28;20648;-61
2022/10/12 01:09:16;;;;;;;1.17;1.08;;;;;;;;;;5065583;28;20049;-62
2022/10/12 01:11:42;;;;;;;2.50;1.30;;;;;;;;;;5065339;28;20052;-62
2022/10/12 01:14:08;;;;;;;2.28;1.38;;;;;;;;;;5067737;28;20044;-62
2022/10/12 01:16:37;;;;;;;1.40;1.30;;;;;;;;;;5064543;28;20040;-62
2022/10/12 01:19:22;;;;;;;3.03;1.60;;;;;;;;;;5064026;28;20053;-62
2022/10/12 01:21:52;;;;;;;3.38;1.77;;;;;;;;;;5067744;28;20037;-61
2022/10/12 01:24:37;;;;;;;3.67;1.67;;;;;;;;;;5069987;28;20043;-62
2022/10/12 01:27:14;;;;;;;2.67;1.90;;;;;;;;;;5057903;28;20047;-62
2022/10/12 01:29:58;;;;;;;3.40;1.92;;;;;;;;;;5062085;28;20437;-61
2022/10/12 01:32:33;;;;;;;4.65;2.03;;;;;;;;;;5070797;28;20040;-62
2022/10/12 01:35:18;;;;;;;3.33;1.80;;;;;;;;;;5069942;28;20067;-61
2022/10/12 01:37:44;;;;;;;5.45;3.20;;;;;;;;;;5064441;28;20051;-62
2022/10/12 01:40:30;;;;;;;6.38;2.97;;;;;;;;;;5069580;28;20048;-62
2022/10/12 01:42:57;;;;;;;8.55;3.15;;;;;;;;;;5069616;28;20052;-62
2022/10/12 01:45:23;;;;;;;7.40;3.10;;;;;;;;;;5070601;28;20080;-61
2022/10/12 01:47:52;;;;;;;8.30;3.22;;;;;;;;;;5067419;28;20041;-62
2022/10/12 01:50:20;;;;;;;4.40;2.28;;;;;;;;;;5070178;28;20090;-62
2022/10/12 01:52:52;;;;;;;4.85;2.50;;;;;;;;;;5068005;28;20044;-62
2022/10/12 01:55:37;;;;;;;7.35;2.85;;;;;;;;;;5070635;28;20087;-62
2022/10/12 01:58:30;;;;;;;3.85;2.75;;;;;;;;;;5062283;28;20183;-62
2022/10/12 02:01:15;;;;;;;7.60;3.10;;;;;;;;;;5057756;28;20427;-60
2022/10/12 02:03:48;;;;;;;4.72;3.17;;;;;;;;;;5068281;28;20049;-61
2022/10/12 02:06:19;;;;;;;6.30;3.00;;;;;;;;;;5066901;28;20033;-61
2022/10/12 02:08:54;;;;;;;5.07;2.65;;;;;;;;;;5069783;28;20123;-61
2022/10/12 02:11:21;;;;;;;3.75;2.72;;;;;;;;;;5068632;28;20078;-61
2022/10/12 02:13:53;;;;;;;6.97;3.33;;;;;;;;;;5071050;28;20040;-60
2022/10/12 02:16:20;;;;;;;2.97;2.25;;;;;;;;;;5061323;28;20032;-60
2022/10/12 02:18:51;;;;;;;6.18;2.67;;;;;;;;;;5068433;28;20059;-60
2022/10/12 02:21:20;;;;;;;7.05;2.63;;;;;;;;;;5067250;28;20037;-60
2022/10/12 02:23:47;;;;;;;5.22;2.63;;;;;;;;;;5070351;28;20127;-60
2022/10/12 02:26:14;;;;;;;5.15;2.67;;;;;;;;;;5067844;28;20380;-60
2022/10/12 02:28:43;;;;;;;3.63;2.40;;;;;;;;;;5068532;28;20040;-60
2022/10/12 02:31:09;;;;;;;4.93;2.90;;;;;;;;;;5070619;28;20040;-60
2022/10/12 02:33:37;;;;;;;2.58;2.38;;;;;;;;;;5068742;28;20036;-61
2022/10/12 02:36:10;;;;;;;3.97;2.30;;;;;;;;;;5068638;28;20048;-60
2022/10/12 02:38:39;;;;;;;3.42;2.53;;;;;;;;;;5068943;28;20570;-60
2022/10/12 02:41:09;;;;;;;3.95;2.70;;;;;;;;;;5069530;28;20072;-60
2022/10/12 02:43:39;;;;;;;4.85;2.97;;;;;;;;;;5068574;28;20089;-60
2022/10/12 02:46:08;;;;;;;4.47;2.80;;;;;;;;;;5065386;28;20920;-60
2022/10/12 02:48:35;;;;;;;6.18;3.72;;;;;;;;;;5067678;28;20028;-61
2022/10/12 02:51:02;;;;;;;11.05;3.55;;;;;;;;;;5067980;28;20035;-60
2022/10/12 02:53:29;;;;;;;4.93;3.40;;;;;;;;;;5069322;28;20035;-59
2022/10/12 02:56:00;;;;;;;6.97;4.10;;;;;;;;;;5056850;28;20081;-61
2022/10/12 02:58:26;;;;;;;7.25;3.63;;;;;;;;;;5067293;28;20045;-61
2022/10/12 03:00:52;;;;;;;4.43;3.20;;;;;;;;;;5070420;28;20459;-61
2022/10/12 03:03:18;;;;;;;5.43;3.22;;;;;;;;;;5069658;28;20041;-60
2022/10/12 03:05:45;;;;;;;5.35;3.50;;;;;;;;;;5069160;28;20389;-61
2022/10/12 03:08:11;;;;;;;7.85;3.50;;;;;;;;;;5050391;28;20051;-60
2022/10/12 03:10:37;;;;;;;5.45;2.95;;;;;;;;;;5062596;28;20037;-60
2022/10/12 03:13:03;;;;;;;3.95;3.08;;;;;;;;;;5049246;28;20040;-62
2022/10/12 03:15:30;;;;;;;5.10;2.90;;;;;;;;;;5069576;28;20492;-61
2022/10/12 03:17:56;;;;;;;3.83;3.10;;;;;;;;;;5069875;28;20402;-61
2022/10/12 03:20:22;;;;;;;4.32;2.80;;;;;;;;;;5070063;28;20124;-61
2022/10/12 03:22:48;;;;;;;3.25;2.42;;;;;;;;;;5069917;28;20036;-61
2022/10/12 03:25:15;;;;;;;3.70;3.10;;;;;;;;;;5067588;28;20068;-61
2022/10/12 03:27:41;;;;;;;4.43;2.90;;;;;;;;;;5062160;28;20044;-61
2022/10/12 03:30:07;;;;;;;3.97;2.60;;;;;;;;;;5063332;28;20045;-60
2022/10/12 03:32:33;;;;;;;4.28;2.70;;;;;;;;;;5065903;28;20083;-60
2022/10/12 03:34:59;;;;;;;3.90;2.95;;;;;;;;;;5055366;28;20068;-60
2022/10/12 03:37:25;;;;;;;3.13;2.75;;;;;;;;;;5067403;28;20103;-62
2022/10/12 03:39:51;;;;;;;2.97;2.30;;;;;;;;;;5070614;28;20613;-60
2022/10/12 03:42:17;;;;;;;3.97;2.70;;;;;;;;;;5073696;28;20036;-61
2022/10/12 03:44:43;;;;;;;3.58;2.60;;;;;;;;;;5060826;28;20036;-60
2022/10/12 03:47:09;;;;;;;2.72;1.63;;;;;;;;;;5068875;28;20082;-60
2022/10/12 03:49:35;;;;;;;2.70;1.90;;;;;;;;;;5071474;28;20147;-60
2022/10/12 03:52:01;;;;;;;3.95;2.10;;;;;;;;;;5070472;28;20054;-61
2022/10/12 03:54:27;;;;;;;4.00;1.90;;;;;;;;;;5068905;28;20127;-61
2022/10/12 03:56:54;;;;;;;3.85;2.33;;;;;;;;;;5066820;28;20119;-61
2022/10/12 03:59:20;;;;;;;2.88;2.10;;;;;;;;;;5066078;28;20048;-61
2022/10/12 04:01:46;;;;;;;5.95;2.67;;;;;;;;;;5064203;28;20044;-60
2022/10/12 04:04:12;;;;;;;3.55;2.58;;;;;;;;;;5064308;28;20052;-60
2022/10/12 04:06:38;;;;;;;3.97;2.67;;;;;;;;;;5073001;28;20107;-61
2022/10/12 04:09:04;;;;;;;3.00;2.35;;;;;;;;;;5071837;28;20044;-61
2022/10/12 04:11:30;;;;;;;3.47;2.55;;;;;;;;;;5069015;28;20032;-61
2022/10/12 04:13:56;;;;;;;4.55;2.60;;;;;;;;;;5068516;28;20036;-61
2022/10/12 04:16:22;;;;;;;2.70;2.40;;;;;;;;;;5073101;28;20041;-61
2022/10/12 04:18:48;;;;;;;4.65;2.50;;;;;;;;;;5071231;28;20049;-61
2022/10/12 04:21:15;;;;;;;3.25;2.15;;;;;;;;;;5067891;28;20056;-61
2022/10/12 04:23:41;;;;;;;2.72;2.47;;;;;;;;;;5072873;28;20274;-60
2022/10/12 04:26:08;;;;;;;3.90;2.83;;;;;;;;;;5057215;28;20115;-61
2022/10/12 04:28:34;;;;;;;4.88;3.03;;;;;;;;;;5071444;28;20067;-61
2022/10/12 04:31:00;;;;;;;4.90;3.13;;;;;;;;;;5070356;28;20560;-61
2022/10/12 04:33:26;;;;;;;5.13;3.17;;;;;;;;;;5073357;28;20036;-60
2022/10/12 04:35:52;;;;;;;8.23;3.88;;;;;;;;;;5059263;28;20517;-62
2022/10/12 04:38:18;;;;;;;6.68;3.70;;;;;;;;;;5060492;28;20032;-60
2022/10/12 04:40:48;;;;;;;2.78;2.42;;;;;;;;;;5061591;28;20037;-61
2022/10/12 04:43:14;;;;;;;4.57;3.28;;;;;;;;;;5064285;28;20041;-61
2022/10/12 04:45:40;;;;;;;4.38;2.35;;;;;;;;;;5062900;28;20048;-61
2022/10/12 04:48:06;;;;;;;6.40;3.70;;;;;;;;;;5050395;28;20040;-61
2022/10/12 04:50:32;;;;;;;5.63;3.58;;;;;;;;;;5036982;28;20044;-60
2022/10/12 04:52:58;;;;;;;6.25;3.67;;;;;;;;;;5051873;28;20101;-60
2022/10/12 04:55:24;;;;;;;5.65;3.80;;;;;;;;;;5056597;28;20063;-60
2022/10/12 04:57:50;;;;;;;6.07;3.50;;;;;;;;;;5057167;28;20051;-61
2022/10/12 05:00:16;;;;;;;5.50;3.30;;;;;;;;;;5057399;28;20618;-61
2022/10/12 05:02:42;;;;;;;5.90;3.15;;;;;;;;;;5061451;28;20051;-61
2022/10/12 05:05:09;;;;;;;4.55;3.08;;;;;;;;;;5060016;28;20053;-60
2022/10/12 05:07:35;;;;;;;6.35;3.47;;;;;;;;;;5057898;28;20454;-60
2022/10/12 05:10:01;;;;;;;3.97;2.42;;;;;;;;;;5059753;28;20102;-61
2022/10/12 05:12:27;;;;;;;2.42;2.20;;;;;;;;;;5063257;28;20054;-61
2022/10/12 05:14:53;;;;;;;3.13;2.15;;;;;;;;;;5059805;28;20047;-61
2022/10/12 05:17:19;;;;;;;2.67;2.30;;;;;;;;;;5060853;28;20037;-61
2022/10/12 05:19:45;;;;;;;3.38;2.20;;;;;;;;;;5059536;28;20063;-61
2022/10/12 05:22:11;;;;;;;6.13;3.00;;;;;;;;;;5065405;28;20447;-61
2022/10/12 05:24:37;;;;;;;3.95;3.00;;;;;;;;;;5068028;28;20120;-61
2022/10/12 05:27:03;;;;;;;4.93;3.47;;;;;;;;;;5059183;28;20119;-60
2022/10/12 05:29:29;;;;;;;5.10;3.28;;;;;;;;;;5064525;28;20032;-60
2022/10/12 05:31:55;;;;;;;5.38;3.42;;;;;;;;;;5064103;28;20412;-61
2022/10/12 05:34:21;;;;;;;7.53;4.35;;;;;;;;;;5068536;28;20040;-61
2022/10/12 05:36:47;;;;;;;5.63;3.50;;;;;;;;;;5067443;28;20483;-61
2022/10/12 05:39:13;;;;;;;3.85;3.15;;;;;;;;;;5067171;28;20039;-59
2022/10/12 05:41:39;;;;;;;5.15;3.30;;;;;;;;;;5059732;28;20507;-61
2022/10/12 05:44:05;;;;;;;4.93;3.30;;;;;;;;;;5063232;28;20122;-61
2022/10/12 05:46:31;;;;;;;3.70;2.88;;;;;;;;;;5065252;28;20483;-61
2022/10/12 05:48:57;;;;;;;3.97;3.08;;;;;;;;;;5064368;28;20097;-60
2022/10/12 05:51:23;;;;;;;4.40;3.42;;;;;;;;;;5067413;28;20089;-61
2022/10/12 05:53:49;;;;;;;4.13;3.28;;;;;;;;;;5069862;28;20483;-60
2022/10/12 05:56:15;;;;;;;4.00;3.60;;;;;;;;;;5067719;28;20040;-61
2022/10/12 05:58:41;;;;;;;5.47;3.90;;;;;;;;;;5067670;28;20059;-61
2022/10/12 06:01:08;;;;;;;4.65;3.70;;;;;;;;;;5052329;28;20033;-61
2022/10/12 06:03:34;;;;;;;4.32;3.20;;;;;;;;;;5053845;28;20086;-60
2022/10/12 06:06:00;;;;;;;3.28;2.97;;;;;;;;;;5066872;28;20483;-61
2022/10/12 06:08:26;;;;;;;3.55;3.08;;;;;;;;;;5071380;28;21178;-61
2022/10/12 06:10:53;;;;;;;3.85;2.60;;;;;;;;;;5067362;28;20037;-61
2022/10/12 06:13:19;;;;;;;3.58;2.47;;;;;;;;;;5053306;28;20116;-61
2022/10/12 06:15:45;;;;;;;5.25;3.60;;;;;;;;;;5070264;28;20047;-61
2022/10/12 06:18:12;;;;;;;4.10;3.55;;;;;;;;;;5070635;28;20040;-60
2022/10/12 06:20:38;;;;;;;5.00;3.95;;;;;;;;;;5068155;28;20102;-61
2022/10/12 06:23:04;;;;;;;7.50;4.53;;;;;;;;;;5056550;28;20129;-61
2022/10/12 06:25:30;;;;;;;3.58;3.10;;;;;;;;;;5070305;28;20091;-60
2022/10/12 06:27:56;;;;;;;3.63;2.95;;;;;;;;;;5060190;28;20033;-61
2022/10/12 06:30:22;;;;;;;6.15;3.80;;;;;;;;;;5070970;28;20055;-60
2022/10/12 06:32:48;;;;;;;4.40;3.47;;;;;;;;;;5067932;28;20476;-60
2022/10/12 06:35:14;;;;;;;4.43;3.40;;;;;;;;;;5069249;28;20054;-61
2022/10/12 06:37:40;;;;;;;5.60;4.18;;;;;;;;;;5069017;28;20123;-60
2022/10/12 06:40:07;;;;;;;6.95;4.97;;;;;;;;;;5055728;28;20494;-59
2022/10/12 06:42:33;;;;;;;7.90;3.60;;;;;;;;;;5063104;28;20093;-60
2022/10/12 06:44:59;;;;;;;4.68;3.25;;;;;;;;;;5067286;28;20396;-60
2022/10/12 06:47:25;;;;;;;5.35;3.75;;;;;;;;;;5057196;28;20040;-60
2022/10/12 06:49:51;;;;;;;3.50;3.20;;;;;;;;;;5069562;28;20040;-60
2022/10/12 06:52:17;;;;;;;7.05;4.20;;;;;;;;;;5046991;28;20041;-60
2022/10/12 06:54:43;;;;;;;6.18;4.30;;;;;;;;;;5069238;28;20692;-60
2022/10/12 06:57:09;;;;;;;8.30;4.50;;;;;;;;;;5065408;28;20037;-60
2022/10/12 06:59:35;;;;;;;7.85;4.57;;;;;;;;;;5058705;28;20064;-60
2022/10/12 07:02:01;;;;;;;6.97;5.13;;;;;;;;;;5061171;28;20045;-60
2022/10/12 07:04:27;;;;;;;6.20;4.63;;;;;;;;;;5066583;28;20055;-61
2022/10/12 07:06:53;;;;;;;9.75;5.07;;;;;;;;;;5069130;28;20036;-60
2022/10/12 07:09:19;;;;;;;7.65;4.93;;;;;;;;;;5069463;28;20124;-61
2022/10/12 07:11:45;;;;;;;11.43;5.97;;;;;;;;;;5071013;28;20048;-61
2022/10/12 07:14:11;;;;;;;10.30;6.43;;;;;;;;;;5072958;28;20517;-61
2022/10/12 07:16:37;;;;;;;12.88;6.63;;;;;;;;;;5072518;28;20048;-60
2022/10/12 07:19:03;;;;;;;13.77;7.00;;;;;;;;;;5063693;28;20049;-61
2022/10/12 07:21:29;;;;;;;13.32;6.25;;;;;;;;;;5071161;28;20036;-61
2022/10/12 07:23:55;;;;;;;13.35;7.53;;;;;;;;;;5072748;28;20044;-61
2022/10/12 07:26:21;;;;;;;16.20;7.80;;;;;;;;;;5067851;28;20047;-61
2022/10/12 07:28:47;;;;;;;15.20;7.30;;;;;;;;;;5072602;28;20565;-60
2022/10/12 07:31:13;;;;;;;15.15;8.48;;;;;;;;;;5066707;28;20037;-61
2022/10/12 07:33:39;;;;;;;14.48;8.25;;;;;;;;;;5074585;28;20082;-61
2022/10/12 07:36:05;;;;;;;14.77;9.07;;;;;;;;;;5051216;28;20052;-61
2022/10/12 07:38:32;;;;;;;13.13;9.32;;;;;;;;;;5073960;28;20058;-61
2022/10/12 07:40:59;;;;;;;20.17;10.13;;;;;;;;;;5072149;28;20048;-61
2022/10/12 07:43:25;;;;;;;21.20;9.75;;;;;;;;;;5071756;28;20040;-61
2022/10/12 07:45:51;;;;;;;23.10;9.63;;;;;;;;;;5067651;28;20045;-61
2022/10/12 07:48:17;;;;;;;20.45;9.88;;;;;;;;;;5073668;28;20488;-61
2022/10/12 07:50:43;;;;;;;19.85;9.98;;;;;;;;;;5073127;28;20448;-61
2022/10/12 07:53:09;;;;;;;20.02;9.95;;;;;;;;;;5073802;28;20115;-60
2022/10/12 07:55:35;;;;;;;21.15;11.30;;;;;;;;;;5072604;28;20121;-60
2022/10/12 07:58:01;;;;;;;22.75;12.63;;;;;;;;;;5071446;28;20047;-61
2022/10/12 08:00:28;;;;;;;19.98;11.55;;;;;;;;;;5072385;28;20919;-61
2022/10/12 08:02:54;;;;;;;21.83;10.88;;;;;;;;;;5068818;28;20598;-60
2022/10/12 08:05:21;;;;;;;20.15;12.23;;;;;;;;;;5070910;28;20049;-60
2022/10/12 08:07:47;;;;;;;23.33;10.43;;;;;;;;;;5071834;28;20040;-61
2022/10/12 08:10:13;;;;;;;21.23;9.77;;;;;;;;;;5072583;28;20466;-61
2022/10/12 08:12:39;;;;;;;21.52;9.75;;;;;;;;;;5072065;28;20634;-60
2022/10/12 08:15:05;;;;;;;20.23;10.30;;;;;;;;;;5071751;28;20040;-61
2022/10/12 08:17:31;;;;;;;23.90;9.45;;;;;;;;;;5066732;28;20037;-61
2022/10/12 08:19:57;;;;;;;18.25;8.68;;;;;;;;;;5070026;28;20388;-61
2022/10/12 08:22:23;;;;;;;17.40;8.55;;;;;;;;;;5064023;28;20037;-61
2022/10/12 08:24:49;;;;;;;17.17;9.05;;;;;;;;;;5053833;28;20106;-62
2022/10/12 08:27:15;;;;;;;18.88;8.98;;;;;;;;;;5071242;28;20043;-61
2022/10/12 08:29:41;;;;;;;14.80;8.38;;;;;;;;;;5071474;28;20032;-60
2022/10/12 08:32:07;;;;;;;21.75;8.00;;;;;;;;;;5073414;28;20040;-61
2022/10/12 08:34:33;;;;;;;20.05;7.80;;;;;;;;;;5072862;28;20036;-61
2022/10/12 08:36:59;;;;;;;14.38;7.63;;;;;;;;;;5071023;28;20043;-60
2022/10/12 08:39:26;;;;;;;17.88;8.00;;;;;;;;;;5072877;28;20491;-60
2022/10/12 08:42:04;;;;;;;17.85;7.85;;;;;;;;;;5072426;28;20121;-60
2022/10/12 08:44:49;;;;;;;21.13;7.72;;;;;;;;;;5070008;28;20494;-60
2022/10/12 08:47:17;;;;;;;19.25;7.68;;;;;;;;;;5069045;28;20068;-60
2022/10/12 08:49:44;;;;;;;16.35;7.47;;;;;;;;;;5072314;28;20035;-60
2022/10/12 08:52:24;;;;;;;20.50;8.18;;;;;;;;;;5052704;28;20797;-60
2022/10/12 08:54:50;;;;;;;20.73;8.27;;;;;;;;;;5056056;28;20048;-59
2022/10/12 08:57:17;;;;;;;17.80;7.90;;;;;;;;;;5068611;28;20083;-60
2022/10/12 08:59:44;;;;;;;20.88;7.78;;;;;;;;;;5071596;28;20137;-60
2022/10/12 09:02:29;;;;;;;17.88;7.72;;;;;;;;;;5063980;28;20055;-63
2022/10/12 09:05:02;;;;;;;23.05;7.05;;;;;;;;;;5067619;28;20044;-60
2022/10/12 09:07:28;;;;;;;18.48;7.28;;;;;;;;;;5070829;28;20036;-60
2022/10/12 09:09:57;;;;;;;14.35;6.88;;;;;;;;;;5067112;28;20551;-61
2022/10/12 09:12:32;;;;;;;17.00;6.63;;;;;;;;;;5062183;28;20036;-60
2022/10/12 09:15:01;;;;;;;18.13;7.05;;;;;;;;;;5066799;28;20064;-60
2022/10/12 09:17:41;;;;;;;15.50;7.55;;;;;;;;;;5070825;28;20048;-61
2022/10/12 09:20:07;;;;;;;14.05;6.55;;;;;;;;;;5066398;28;20041;-61
2022/10/12 09:22:34;;;;;;;19.60;8.15;;;;;;;;;;5071817;28;20040;-61
2022/10/12 09:25:01;;;;;;;16.38;7.00;;;;;;;;;;5063385;28;20121;-61
2022/10/12 09:27:29;;;;;;;21.23;8.20;;;;;;;;;;5056388;28;20041;-60
2022/10/12 09:29:57;;;;;;;22.73;9.50;;;;;;;;;;5071508;28;20434;-60
2022/10/12 09:32:36;;;;;;;19.58;8.50;;;;;;;;;;5069468;28;20117;-60
2022/10/12 09:35:03;;;;;;;17.77;8.60;;;;;;;;;;5071621;28;20048;-61
2022/10/12 09:37:31;;;;;;;17.83;8.80;;;;;;;;;;5071334;28;20044;-61
2022/10/12 09:39:58;;;;;;;19.42;9.35;;;;;;;;;;5071466;28;20058;-60
2022/10/12 09:42:24;;;;;;;19.13;9.80;;;;;;;;;;5068886;28;20056;-61
2022/10/12 09:44:54;;;;;;;15.60;8.10;;;;;;;;;;5053110;28;20073;-60
2022/10/12 09:47:22;;;;;;;20.60;8.80;;;;;;;;;;5061934;28;20090;-61
2022/10/12 09:49:49;;;;;;;19.15;9.10;;;;;;;;;;5063849;28;20048;-61
2022/10/12 09:52:17;;;;;;;15.95;8.57;;;;;;;;;;5069569;28;20535;-61
2022/10/12 09:54:47;;;;;;;22.10;9.38;;;;;;;;;;5070835;28;20136;-61
2022/10/12 09:57:24;;;;;;;22.20;8.63;;;;;;;;;;5071338;28;20040;-61
2022/10/12 09:59:50;;;;;;;17.48;8.70;;;;;;;;;;5062630;28;20346;-61
2022/10/12 10:02:21;;;;;;;20.90;7.88;;;;;;;;;;5049829;28;20080;-60
2022/10/12 10:04:47;;;;;;;18.60;7.88;;;;;;;;;;5060291;28;20049;-60
2022/10/12 10:07:35;;;;;;;17.75;7.50;;;;;;;;;;5063010;28;20048;-61
2022/10/12 10:10:03;;;;;;;14.85;7.22;;;;;;;;;;5060945;28;20062;-61
2022/10/12 10:12:29;;;;;;;18.27;6.97;;;;;;;;;;5068944;28;20056;-61
2022/10/12 10:14:56;;;;;;;14.98;7.25;;;;;;;;;;5067839;28;20036;-61
2022/10/12 10:17:27;;;;;;;16.20;6.47;;;;;;;;;;5065528;28;20066;-60
2022/10/12 10:19:54;;;;;;;15.80;6.75;;;;;;;;;;5067940;28;20037;-61
2022/10/12 10:22:21;;;;;;;13.13;6.25;;;;;;;;;;5071260;28;20045;-60
2022/10/12 10:24:55;;;;;;;13.27;6.85;;;;;;;;;;5064950;28;20090;-60
2022/10/12 10:27:39;;;;;;;14.63;5.97;;;;;;;;;;5061673;28;20045;-60
2022/10/12 10:30:15;;;;;;;16.02;6.80;;;;;;;;;;5069475;28;20048;-61
2022/10/12 10:32:41;;;;;;;12.90;6.00;;;;;;;;;;5065903;28;20072;-61
2022/10/12 10:35:26;;;;;;;16.80;5.88;;;;;;;;;;5068744;28;20062;-61
2022/10/12 10:38:14;;;;;;;13.15;6.03;;;;;;;;;;5070292;28;20038;-61
2022/10/12 10:41:02;;;;;;;16.00;6.15;;;;;;;;;;5066495;28;20040;-61
2022/10/12 10:43:48;;;;;;;16.33;6.00;;;;;;;;;;5063981;28;20036;-61
2022/10/12 10:46:33;;;;;;;9.27;4.28;;;;;;;;;;5066018;28;20036;-60
2022/10/12 10:49:05;;;;;;;13.95;5.25;;;;;;;;;;5070786;28;20245;-61
2022/10/12 10:51:46;;;;;;;12.38;4.80;;;;;;;;;;5073466;28;20406;-60
2022/10/12 10:54:14;;;;;;;14.52;5.10;;;;;;;;;;5063507;28;20144;-61
2022/10/12 10:56:40;;;;;;;16.55;5.32;;;;;;;;;;5060110;28;20131;-60
2022/10/12 10:59:14;;;;;;;10.48;5.00;;;;;;;;;;5064643;28;20079;-60
2022/10/12 11:01:43;;;;;;;15.15;5.10;;;;;;;;;;5069749;28;20047;-61
2022/10/12 11:04:22;;;;;;;11.88;4.70;;;;;;;;;;5072495;28;20518;-61
2022/10/12 11:06:54;;;;;;;12.57;5.05;;;;;;;;;;5072622;28;20119;-61
2022/10/12 11:09:24;;;;;;;13.15;3.88;;;;;;;;;;5063275;28;20132;-61
2022/10/12 11:11:56;;;;;;;9.30;4.77;;;;;;;;;;5072625;28;20093;-61
2022/10/12 11:14:26;;;;;;;11.50;4.78;;;;;;;;;;5068446;28;20299;-61
2022/10/12 11:16:58;;;;;;;11.50;4.60;;;;;;;;;;5070965;28;20045;-61
2022/10/12 11:19:24;;;;;;;13.77;5.25;;;;;;;;;;5070890;28;20052;-61
2022/10/12 11:22:01;;;;;;;10.05;4.40;;;;;;;;;;5073388;28;20562;-61
2022/10/12 11:24:33;;;;;;;11.70;4.88;;;;;;;;;;5068757;28;20045;-62
2022/10/12 11:26:58;;;;;;;;;;;;;;;;;;5073184;28;20466;-61
2022/10/12 11:29:24;;;;;;;10.60;4.18;;;;;;;;;;5065031;28;19916;-61
2022/10/12 11:31:54;;;;;;;10.25;3.83;;;;;;;;;;5066245;28;20039;-66
2022/10/12 11:34:22;;;;;;;10.32;4.00;;;;;;;;;;5066106;28;20072;-66
2022/10/12 11:36:51;;;;;;;12.30;4.40;;;;;;;;;;5074059;28;20036;-66
2022/10/12 11:39:26;;;;;;;13.88;5.07;;;;;;;;;;5059695;28;20041;-66
2022/10/12 11:41:53;;;;;;;10.38;4.20;;;;;;;;;;5066689;28;20437;-66
2022/10/12 11:44:21;;;;;;;7.28;3.97;;;;;;;;;;5070844;28;20044;-66
2022/10/12 11:46:55;;;;;;;12.23;5.00;;;;;;;;;;5068688;28;20046;-66
2022/10/12 11:49:21;;;;;;;9.32;3.85;;;;;;;;;;5068247;28;20036;-66
2022/10/12 11:51:48;;;;;;;13.70;4.53;;;;;;;;;;5072454;28;20032;-66
2022/10/12 11:54:20;;;;;;;11.23;4.45;;;;;;;;;;5066460;28;20082;-66
2022/10/12 11:56:48;;;;;;;9.77;4.38;;;;;;;;;;5070042;28;20075;-66
2022/10/12 11:59:17;;;;;;;12.90;4.32;;;;;;;;;;5070430;28;20384;-66
2022/10/12 12:01:49;;;;;;;10.65;3.90;;;;;;;;;;5066639;28;20032;-66
2022/10/12 12:04:27;;;;;;;10.80;4.38;;;;;;;;;;5064804;28;20044;-66
2022/10/12 12:06:58;;;;;;;11.90;3.80;;;;;;;;;;5069934;28;20403;-66
2022/10/12 12:09:30;;;;;;;11.00;3.72;;;;;;;;;;5069565;28;20047;-66
2022/10/12 12:12:10;;;;;;;11.40;4.28;;;;;;;;;;5070497;28;20040;-66
2022/10/12 12:14:36;;;;;;;11.88;3.55;;;;;;;;;;5064280;28;20056;-66
2022/10/12 12:17:25;;;;;;;10.93;4.00;;;;;;;;;;5062121;28;20438;-66
2022/10/12 12:19:54;;;;;;;12.63;4.05;;;;;;;;;;5054596;28;20130;-66
2022/10/12 12:22:28;;;;;;;10.23;3.63;;;;;;;;;;5063702;28;20074;-66
2022/10/12 12:25:03;;;;;;;13.85;3.65;;;;;;;;;;5064442;28;20040;-66
2022/10/12 12:27:35;;;;;;;11.45;4.05;;;;;;;;;;5062876;28;20115;-66
2022/10/12 12:30:04;;;;;;;12.10;3.78;;;;;;;;;;5070630;28;20040;-66
2022/10/12 12:32:41;;;;;;;12.43;3.88;;;;;;;;;;5065264;28;20482;-66
2022/10/12 12:35:17;;;;;;;11.38;3.33;;;;;;;;;;5059426;28;20426;-66
2022/10/12 12:37:43;;;;;;;11.68;3.45;;;;;;;;;;5067443;28;20401;-66
2022/10/12 12:40:19;;;;;;;12.70;4.05;;;;;;;;;;5066107;28;20071;-66
2022/10/12 12:42:45;;;;;;;10.48;3.25;;;;;;;;;;5064247;28;20040;-66
2022/10/12 12:45:31;;;;;;;13.77;3.63;;;;;;;;;;5054223;28;20488;-66
2022/10/12 12:47:57;;;;;;;12.43;3.80;;;;;;;;;;5063260;28;20040;-66
2022/10/12 12:50:49;;;;;;;11.38;3.60;;;;;;;;;;5068256;28;20396;-66
2022/10/12 12:53:18;;;;;;;9.23;3.47;;;;;;;;;;5054329;28;20136;-66
2022/10/12 12:56:02;;;;;;;13.00;4.20;;;;;;;;;;5067965;28;20041;-66
2022/10/12 12:58:31;;;;;;;10.07;3.88;;;;;;;;;;5066753;28;20049;-66
2022/10/12 13:00:57;;;;;;;9.93;4.32;;;;;;;;;;5070673;28;20029;-66
2022/10/12 13:03:23;;;;;;;10.02;4.20;;;;;;;;;;5068262;28;20040;-66
2022/10/12 13:05:55;;;;;;;15.18;4.68;;;;;;;;;;5060333;28;20662;-66
2022/10/12 13:08:33;;;;;;;8.48;3.47;;;;;;;;;;5068138;28;20039;-66
2022/10/12 13:10:59;;;;;;;12.05;4.30;;;;;;;;;;5067594;28;20043;-66
2022/10/12 13:13:44;;;;;;;10.73;3.92;;;;;;;;;;5065659;28;20403;-66
2022/10/12 13:16:29;;;;;;;12.38;4.55;;;;;;;;;;5060592;28;20052;-67
2022/10/12 13:18:57;;;;;;;12.77;3.80;;;;;;;;;;5068092;28;20037;-67
2022/10/12 13:21:35;;;;;;;13.30;4.63;;;;;;;;;;5062595;28;20036;-66
2022/10/12 13:24:15;;;;;;;9.30;4.20;;;;;;;;;;5053758;28;20878;-66
2022/10/12 13:26:44;;;;;;;14.68;4.75;;;;;;;;;;5069622;28;20594;-67
2022/10/12 13:29:16;;;;;;;11.52;3.80;;;;;;;;;;5067626;28;20125;-66
2022/10/12 13:31:44;;;;;;;10.98;3.97;;;;;;;;;;5065815;28;20499;-66
2022/10/12 13:34:29;;;;;;;14.32;4.82;;;;;;;;;;5066019;28;20089;-67
2022/10/12 13:36:55;;;;;;;12.55;4.13;;;;;;;;;;5069109;28;20036;-67
2022/10/12 13:39:21;;;;;;;9.98;3.70;;;;;;;;;;5054473;28;20044;-67
2022/10/12 13:41:49;;;;;;;8.68;3.60;;;;;;;;;;5058300;28;20063;-67
2022/10/12 13:44:20;;;;;;;13.00;4.00;;;;;;;;;;5057653;28;20037;-66
2022/10/12 13:46:51;;;;;;;12.25;4.32;;;;;;;;;;5062916;28;20463;-66
2022/10/12 13:49:19;;;;;;;12.25;4.15;;;;;;;;;;5068526;28;20495;-66
2022/10/12 13:51:46;;;;;;;8.27;3.63;;;;;;;;;;5066671;28;20036;-67
2022/10/12 13:54:23;;;;;;;10.38;3.55;;;;;;;;;;5052698;28;20098;-67
2022/10/12 13:56:54;;;;;;;8.82;3.60;;;;;;;;;;5058820;28;20032;-67
2022/10/12 13:59:22;;;;;;;10.43;3.45;;;;;;;;;;5062726;28;20491;-66
2022/10/12 14:02:01;;;;;;;11.52;3.63;;;;;;;;;;5065853;28;20036;-67
2022/10/12 14:04:31;;;;;;;10.38;3.45;;;;;;;;;;5066290;28;20499;-66
2022/10/12 14:07:02;;;;;;;8.38;3.00;;;;;;;;;;5066526;28;20044;-65
2022/10/12 14:09:36;;;;;;;12.95;3.75;;;;;;;;;;5062651;28;20040;-66
2022/10/12 14:12:02;;;;;;;8.35;3.42;;;;;;;;;;5055906;28;20403;-65
2022/10/12 14:14:30;;;;;;;10.68;3.90;;;;;;;;;;5068285;28;20032;-64
2022/10/12 14:16:56;;;;;;;11.55;3.50;;;;;;;;;;5068528;28;20503;-65
2022/10/12 14:19:35;;;;;;;11.82;3.70;;;;;;;;;;5046004;28;20483;-65
2022/10/12 14:22:01;;;;;;;10.60;3.55;;;;;;;;;;5064107;28;20067;-65
2022/10/12 14:24:28;;;;;;;12.07;4.03;;;;;;;;;;5067730;28;20080;-64
2022/10/12 14:26:58;;;;;;;8.98;3.55;;;;;;;;;;5067653;28;20062;-65
2022/10/12 14:29:28;;;;;;;9.18;3.00;;;;;;;;;;5059918;28;20490;-65
2022/10/12 14:31:55;;;;;;;10.80;3.85;;;;;;;;;;5064786;28;20053;-66
2022/10/12 14:34:32;;;;;;;8.43;3.13;;;;;;;;;;5067855;28;20538;-66
2022/10/12 14:37:06;;;;;;;9.02;3.10;;;;;;;;;;5066534;28;20076;-66
2022/10/12 14:39:32;;;;;;;8.73;3.50;;;;;;;;;;5064847;28;20040;-65
2022/10/12 14:42:19;;;;;;;9.23;3.25;;;;;;;;;;5060093;28;20076;-66
2022/10/12 14:44:45;;;;;;;9.82;3.53;;;;;;;;;;5038192;28;20063;-65
2022/10/12 14:47:31;;;;;;;11.32;3.30;;;;;;;;;;5068718;28;20037;-66
2022/10/12 14:49:58;;;;;;;8.82;2.85;;;;;;;;;;5052240;28;20040;-65